Time;durP1;ratioP1;P1;durP2;ratioP2;P2;SDS_P1;SDS_P2;PMS_P1;PMS_P2;Temp;Humidity;BMP_temperature;BMP_pressure;BME280_temperature;BME280_humidity;BME280_pressure;Samples;Min_cycle;Max_cycle;Signal;HPM_P1;HPM_P2
2021/04/09 00:01:34;;;;;;;13.70;3.30;;;9.80;64.90;;;;;;5094656;28;20081;-65
2021/04/09 00:03:59;;;;;;;10.65;2.90;;;9.80;64.90;;;;;;5094914;28;20462;-65
2021/04/09 00:06:25;;;;;;;12.55;3.72;;;9.80;64.90;;;;;;5094621;28;20047;-66
2021/04/09 00:08:51;;;;;;;11.23;3.08;;;9.70;64.90;;;;;;5108808;28;20024;-65
2021/04/09 00:11:17;;;;;;;15.20;4.05;;;9.70;64.90;;;;;;5096697;28;20482;-65
2021/04/09 00:13:43;;;;;;;12.57;3.50;;;9.80;65.00;;;;;;5094196;28;20031;-64
2021/04/09 00:16:09;;;;;;;10.65;4.00;;;9.80;64.90;;;;;;5096354;28;20483;-65
2021/04/09 00:18:35;;;;;;;13.35;3.10;;;9.80;65.50;;;;;;5094863;28;20031;-65
2021/04/09 00:21:01;;;;;;;11.93;3.35;;;9.80;64.90;;;;;;5094414;28;20031;-66
2021/04/09 00:23:27;;;;;;;12.45;3.75;;;9.80;64.90;;;;;;5094630;28;20444;-65
2021/04/09 00:25:53;;;;;;;12.60;4.10;;;9.70;64.80;;;;;;5093991;28;20449;-66
2021/04/09 00:28:19;;;;;;;9.10;4.10;;;9.80;64.90;;;;;;5094303;28;20099;-65
2021/04/09 00:30:45;;;;;;;13.02;3.53;;;9.70;64.90;;;;;;5094149;28;20028;-66
2021/04/09 00:33:11;;;;;;;18.70;4.85;;;9.70;64.90;;;;;;5094361;28;20028;-66
2021/04/09 00:35:37;;;;;;;13.02;4.63;;;9.70;64.90;;;;;;5094652;28;20035;-64
2021/04/09 00:38:03;;;;;;;16.70;5.03;;;9.70;64.90;;;;;;5104663;28;20035;-65
2021/04/09 00:40:29;;;;;;;12.30;5.00;;;9.70;65.00;;;;;;5094148;28;20028;-66
2021/04/09 00:42:55;;;;;;;12.13;4.30;;;9.70;64.90;;;;;;5093811;28;20016;-65
2021/04/09 00:45:22;;;;;;;12.32;5.63;;;9.70;64.90;;;;;;5118636;27;20035;-65
2021/04/09 00:47:47;;;;;;;13.00;4.45;;;9.60;64.90;;;;;;5111997;28;20027;-65
2021/04/09 00:50:14;;;;;;;13.85;4.13;;;9.60;65.00;;;;;;5093748;28;20078;-65
2021/04/09 00:52:43;;;;;;;16.63;3.75;;;9.60;65.00;;;;;;5093890;28;20024;-65
2021/04/09 00:55:10;;;;;;;15.73;5.05;;;9.60;65.10;;;;;;5094138;28;20024;-65
2021/04/09 00:57:37;;;;;;;7.35;3.47;;;9.60;65.20;;;;;;5093483;28;20027;-66
2021/04/09 01:00:08;;;;;;;12.88;4.00;;;9.60;65.20;;;;;;5093590;28;20027;-66
2021/04/09 01:02:34;;;;;;;11.80;3.90;;;9.60;65.20;;;;;;5109120;28;20380;-65
2021/04/09 01:05:00;;;;;;;16.10;5.03;;;9.60;65.10;;;;;;5080386;28;20114;-66
2021/04/09 01:07:26;;;;;;;12.52;3.10;;;9.60;65.10;;;;;;5095934;28;20049;-65
2021/04/09 01:09:53;;;;;;;16.77;5.28;;;9.60;65.10;;;;;;5093895;28;20347;-65
2021/04/09 01:12:19;;;;;;;14.65;3.78;;;9.50;65.00;;;;;;5093383;28;20088;-65
2021/04/09 01:14:46;;;;;;;16.42;3.55;;;9.60;65.10;;;;;;5093599;28;20023;-65
2021/04/09 01:17:33;;;;;;;11.85;3.13;;;9.60;65.20;;;;;;5093489;28;20541;-65
2021/04/09 01:20:11;;;;;;;13.80;4.07;;;9.60;65.20;;;;;;5083610;28;20020;-64
2021/04/09 01:22:50;;;;;;;11.70;3.38;;;9.60;65.00;;;;;;5085290;28;20035;-65
2021/04/09 01:25:40;;;;;;;8.98;3.50;;;9.50;65.00;;;;;;5084774;28;20035;-65
2021/04/09 01:28:09;;;;;;;11.32;5.05;;;9.50;64.90;;;;;;5094961;28;20082;-66
2021/04/09 01:31:12;;;;;;;6.53;3.38;;;9.50;65.60;;;;;;5096246;28;20031;-65
2021/04/09 01:33:45;;;;;;;10.55;4.40;;;9.50;65.20;;;;;;5093404;28;20099;-65
2021/04/09 01:36:18;;;;;;;13.30;4.05;;;9.60;65.10;;;;;;5093111;28;20039;-65
2021/04/09 01:38:48;;;;;;;11.77;3.63;;;9.60;65.10;;;;;;5109205;28;20016;-65
2021/04/09 01:41:14;;;;;;;6.55;3.10;;;9.60;65.10;;;;;;5113240;28;20367;-66
2021/04/09 01:43:42;;;;;;;11.63;3.70;;;9.60;65.10;;;;;;5113560;28;20027;-65
2021/04/09 01:46:10;;;;;;;11.25;3.70;;;9.50;65.10;;;;;;5093466;28;20548;-65
2021/04/09 01:48:41;;;;;;;13.02;4.03;;;9.60;65.20;;;;;;5106895;28;20027;-65
2021/04/09 01:51:11;;;;;;;11.93;3.92;;;9.60;65.20;;;;;;5094299;28;20020;-65
2021/04/09 01:53:40;;;;;;;11.20;4.40;;;9.50;65.10;;;;;;5092775;28;20665;-65
2021/04/09 01:56:08;;;;;;;11.23;3.65;;;9.50;65.00;;;;;;5092299;28;20108;-66
2021/04/09 01:58:37;;;;;;;10.48;3.13;;;9.50;65.10;;;;;;5075317;28;20115;-66
2021/04/09 02:01:07;;;;;;;6.88;4.07;;;9.50;65.10;;;;;;5093215;28;20032;-65
2021/04/09 02:03:34;;;;;;;8.00;3.50;;;9.50;65.20;;;;;;5092819;28;20037;-67
2021/04/09 02:06:01;;;;;;;15.45;4.90;;;9.50;65.10;;;;;;5092188;28;20054;-65
2021/04/09 02:08:29;;;;;;;10.95;3.17;;;9.50;65.20;;;;;;5092425;28;20148;-65
2021/04/09 02:10:57;;;;;;;14.15;4.45;;;9.50;65.20;;;;;;5096363;28;20011;-66
2021/04/09 02:13:25;;;;;;;14.20;3.30;;;9.40;65.30;;;;;;5097731;28;20111;-66
2021/04/09 02:15:55;;;;;;;13.65;3.65;;;9.50;65.40;;;;;;5092458;28;20546;-66
2021/04/09 02:18:22;;;;;;;12.77;3.70;;;9.40;65.30;;;;;;5104302;28;20032;-65
2021/04/09 02:20:48;;;;;;;12.95;3.78;;;9.40;65.40;;;;;;5100759;28;20020;-66
2021/04/09 02:23:14;;;;;;;7.82;3.45;;;9.40;65.40;;;;;;5092394;28;20038;-66
2021/04/09 02:25:40;;;;;;;12.45;3.70;;;9.40;65.40;;;;;;5092157;28;20123;-65
2021/04/09 02:28:06;;;;;;;10.73;3.33;;;9.40;65.50;;;;;;5074630;28;20035;-66
2021/04/09 02:30:32;;;;;;;14.40;4.43;;;9.40;65.60;;;;;;5092714;28;20026;-66
2021/04/09 02:32:58;;;;;;;12.38;3.95;;;9.40;65.60;;;;;;5092088;28;20024;-66
2021/04/09 02:35:24;;;;;;;13.60;3.67;;;9.40;65.60;;;;;;5092396;28;20051;-65
2021/04/09 02:37:51;;;;;;;9.13;3.97;;;9.40;65.70;;;;;;5098375;28;20048;-65
2021/04/09 02:40:21;;;;;;;9.25;3.72;;;9.40;65.60;;;;;;5093040;28;20032;-66
2021/04/09 02:42:49;;;;;;;12.75;4.30;;;9.40;65.50;;;;;;5093624;28;20035;-66
2021/04/09 02:45:15;;;;;;;14.88;4.25;;;9.40;65.60;;;;;;5091974;28;20510;-65
2021/04/09 02:47:43;;;;;;;16.80;4.32;;;9.40;65.60;;;;;;5097006;28;20019;-65
2021/04/09 02:50:14;;;;;;;9.73;4.10;;;9.40;65.60;;;;;;5094242;28;20047;-66
2021/04/09 02:53:04;;;;;;;10.25;4.28;;;9.40;65.70;;;;;;5092727;28;20039;-66
2021/04/09 02:55:39;;;;;;;16.10;4.97;;;9.40;65.80;;;;;;5092122;28;20074;-66
2021/04/09 02:58:07;;;;;;;11.52;3.80;;;9.40;65.70;;;;;;5092918;28;20038;-65
2021/04/09 03:00:37;;;;;;;15.43;4.40;;;9.40;65.60;;;;;;5092168;28;20421;-65
2021/04/09 03:03:06;;;;;;;15.35;5.38;;;9.40;65.70;;;;;;5092287;28;20039;-64
2021/04/09 03:05:32;;;;;;;13.23;4.13;;;9.40;65.70;;;;;;5091733;28;20026;-65
2021/04/09 03:07:59;;;;;;;15.13;5.10;;;9.40;65.70;;;;;;5092412;28;20098;-65
2021/04/09 03:10:26;;;;;;;14.38;4.18;;;9.30;65.60;;;;;;5090402;28;20482;-65
2021/04/09 03:12:51;;;;;;;12.07;4.93;;;9.30;65.70;;;;;;5092923;28;20035;-67
2021/04/09 03:15:28;;;;;;;17.48;5.00;;;9.30;65.70;;;;;;5092092;28;20032;-66
2021/04/09 03:17:58;;;;;;;11.18;4.20;;;9.30;65.70;;;;;;5075200;28;20493;-66
2021/04/09 03:20:24;;;;;;;13.27;5.25;;;9.20;65.70;;;;;;5091832;28;20054;-66
2021/04/09 03:22:51;;;;;;;12.85;3.65;;;9.20;65.80;;;;;;5091730;28;20077;-65
2021/04/09 03:25:16;;;;;;;12.52;4.35;;;9.20;65.90;;;;;;5091230;28;20048;-65
2021/04/09 03:27:42;;;;;;;16.85;5.13;;;9.20;66.00;;;;;;5091889;28;20502;-66
2021/04/09 03:30:09;;;;;;;9.15;3.78;;;9.20;66.00;;;;;;5091712;28;20059;-65
2021/04/09 03:32:35;;;;;;;14.30;4.70;;;9.20;65.90;;;;;;5091287;28;20020;-65
2021/04/09 03:35:01;;;;;;;9.90;3.67;;;9.20;65.90;;;;;;5073076;28;20493;-65
2021/04/09 03:37:27;;;;;;;13.35;4.00;;;9.20;65.80;;;;;;5093920;28;20031;-67
2021/04/09 03:39:52;;;;;;;11.88;4.18;;;9.20;65.80;;;;;;5099529;28;20024;-66
2021/04/09 03:42:18;;;;;;;15.25;5.75;;;9.20;65.80;;;;;;5091612;28;20024;-66
2021/04/09 03:44:44;;;;;;;12.23;3.90;;;9.10;65.80;;;;;;5090798;28;20055;-65
2021/04/09 03:47:10;;;;;;;12.32;3.85;;;9.10;65.80;;;;;;5073664;28;20031;-65
2021/04/09 03:49:35;;;;;;;11.00;4.72;;;9.10;65.90;;;;;;5104343;28;20017;-66
2021/04/09 03:52:01;;;;;;;14.82;4.05;;;9.00;66.50;;;;;;5095167;28;20020;-65
2021/04/09 03:54:27;;;;;;;11.43;4.03;;;9.00;66.00;;;;;;5076563;28;20032;-66
2021/04/09 03:56:53;;;;;;;14.43;4.45;;;9.00;66.00;;;;;;5095346;28;20022;-65
2021/04/09 03:59:19;;;;;;;15.73;6.18;;;9.00;66.00;;;;;;5094783;28;20029;-65
2021/04/09 04:01:45;;;;;;;14.93;3.50;;;9.00;66.00;;;;;;5095723;28;20036;-66
2021/04/09 04:04:11;;;;;;;11.95;4.57;;;9.00;66.00;;;;;;5094997;28;20099;-66
2021/04/09 04:06:36;;;;;;;12.15;4.53;;;9.00;66.00;;;;;;5094883;28;20043;-66
2021/04/09 04:09:02;;;;;;;15.07;3.78;;;9.00;66.00;;;;;;5095427;28;20664;-65
2021/04/09 04:11:28;;;;;;;18.13;4.45;;;9.00;66.00;;;;;;5094819;28;20526;-66
2021/04/09 04:13:55;;;;;;;13.23;5.00;;;9.00;66.00;;;;;;5095229;28;20043;-65
2021/04/09 04:16:21;;;;;;;14.07;4.22;;;9.00;66.70;;;;;;5094907;28;20101;-67
2021/04/09 04:18:46;;;;;;;15.50;4.68;;;9.00;66.00;;;;;;5094821;28;20474;-67
2021/04/09 04:21:12;;;;;;;13.25;3.67;;;8.90;65.90;;;;;;5094296;28;20081;-65
2021/04/09 04:23:38;;;;;;;18.42;4.18;;;8.90;65.80;;;;;;5109129;28;20104;-66
2021/04/09 04:26:04;;;;;;;13.32;4.38;;;8.90;65.90;;;;;;5094566;28;20035;-67
2021/04/09 04:28:31;;;;;;;14.52;3.80;;;8.90;65.90;;;;;;5094737;28;20016;-65
2021/04/09 04:30:57;;;;;;;13.93;4.20;;;8.90;66.00;;;;;;5094829;28;20028;-66
2021/04/09 04:33:24;;;;;;;15.27;4.75;;;8.80;65.90;;;;;;5094684;28;20161;-66
2021/04/09 04:35:50;;;;;;;11.88;4.70;;;8.80;65.90;;;;;;5113793;28;20024;-65
2021/04/09 04:38:17;;;;;;;14.35;4.28;;;8.80;65.90;;;;;;5081915;28;20098;-66
2021/04/09 04:40:44;;;;;;;13.60;5.07;;;8.80;66.00;;;;;;5076167;28;20034;-66
2021/04/09 04:43:10;;;;;;;9.73;5.00;;;8.70;66.00;;;;;;5094165;28;20031;-66
2021/04/09 04:45:36;;;;;;;15.07;4.70;;;8.70;66.10;;;;;;5093941;28;20073;-66
2021/04/09 04:48:03;;;;;;;18.85;6.32;;;8.70;66.00;;;;;;5094003;28;20024;-66
2021/04/09 04:50:29;;;;;;;10.43;3.47;;;8.80;66.10;;;;;;5093961;28;20073;-66
2021/04/09 04:52:55;;;;;;;12.30;3.53;;;8.70;66.10;;;;;;5094047;28;20020;-67
2021/04/09 04:55:21;;;;;;;13.15;4.53;;;8.70;66.10;;;;;;5093594;28;20031;-66
2021/04/09 04:57:47;;;;;;;10.70;3.72;;;8.70;66.00;;;;;;5112402;28;20107;-66
2021/04/09 05:00:14;;;;;;;13.43;3.83;;;8.70;66.00;;;;;;5108197;28;20059;-66
2021/04/09 05:02:40;;;;;;;17.35;4.32;;;8.70;66.00;;;;;;5094181;28;20036;-66
2021/04/09 05:05:06;;;;;;;11.45;5.10;;;8.60;65.90;;;;;;5093406;28;20024;-66
2021/04/09 05:07:32;;;;;;;15.23;4.40;;;8.70;66.00;;;;;;5093663;28;20478;-65
2021/04/09 05:09:58;;;;;;;16.20;4.85;;;8.60;66.00;;;;;;5093444;28;20080;-66
2021/04/09 05:12:24;;;;;;;13.38;4.18;;;8.60;66.10;;;;;;5093896;28;20016;-65
2021/04/09 05:14:54;;;;;;;15.32;4.22;;;8.50;66.10;;;;;;5093231;28;20378;-66
2021/04/09 05:17:20;;;;;;;14.77;4.25;;;8.50;66.10;;;;;;5094254;28;20113;-66
2021/04/09 05:19:46;;;;;;;15.80;4.40;;;8.50;66.20;;;;;;5093215;28;20027;-66
2021/04/09 05:22:12;;;;;;;10.15;5.05;;;8.50;66.30;;;;;;5093453;28;20394;-66
2021/04/09 05:24:38;;;;;;;12.02;3.88;;;8.50;66.30;;;;;;5092717;28;20462;-66
2021/04/09 05:27:05;;;;;;;13.75;4.63;;;8.40;66.30;;;;;;5097786;28;20024;-67
2021/04/09 05:29:36;;;;;;;16.90;4.78;;;8.50;66.30;;;;;;5097420;28;20505;-66
2021/04/09 05:32:05;;;;;;;12.70;4.07;;;8.50;66.40;;;;;;5093563;28;20020;-65
2021/04/09 05:34:31;;;;;;;9.80;3.90;;;8.50;66.30;;;;;;5093212;28;20085;-66
2021/04/09 05:36:56;;;;;;;12.93;4.22;;;8.50;66.30;;;;;;5093545;28;20020;-66
2021/04/09 05:39:22;;;;;;;12.98;3.95;;;8.50;66.30;;;;;;5092584;28;20535;-66
2021/04/09 05:41:48;;;;;;;10.93;3.83;;;8.40;66.30;;;;;;5093271;28;20032;-65
2021/04/09 05:44:14;;;;;;;13.77;5.53;;;8.40;66.30;;;;;;5092706;28;20024;-66
2021/04/09 05:46:39;;;;;;;15.85;4.00;;;8.40;66.30;;;;;;5092029;28;20039;-66
2021/04/09 05:49:05;;;;;;;18.58;4.78;;;8.40;66.40;;;;;;5110452;28;20034;-67
2021/04/09 05:51:31;;;;;;;13.50;4.38;;;8.40;66.40;;;;;;5109160;28;20439;-66
2021/04/09 05:53:57;;;;;;;16.80;5.45;;;8.30;66.30;;;;;;5111766;28;20439;-66
2021/04/09 05:56:22;;;;;;;16.02;4.85;;;8.30;66.30;;;;;;5099310;28;20088;-66
2021/04/09 05:58:48;;;;;;;17.38;3.90;;;8.30;66.30;;;;;;5091529;28;20032;-66
2021/04/09 06:01:14;;;;;;;15.43;5.25;;;8.30;66.40;;;;;;5095513;28;20027;-66
2021/04/09 06:03:40;;;;;;;16.83;4.20;;;8.30;66.40;;;;;;5105479;28;20474;-66
2021/04/09 06:06:06;;;;;;;9.25;3.83;;;8.30;66.40;;;;;;5092878;28;20024;-66
2021/04/09 06:08:32;;;;;;;8.77;4.22;;;8.30;66.40;;;;;;5093764;28;20012;-66
2021/04/09 06:10:57;;;;;;;13.65;4.55;;;8.40;66.50;;;;;;5092190;28;20032;-65
2021/04/09 06:13:23;;;;;;;15.57;4.45;;;8.40;66.50;;;;;;5092799;28;20024;-66
2021/04/09 06:15:49;;;;;;;10.50;4.32;;;8.40;66.40;;;;;;5110668;28;20371;-65
2021/04/09 06:18:15;;;;;;;11.43;4.80;;;8.40;66.30;;;;;;5094775;28;20028;-66
2021/04/09 06:20:41;;;;;;;10.80;4.18;;;8.40;66.20;;;;;;5092773;28;20031;-65
2021/04/09 06:23:06;;;;;;;17.83;5.10;;;8.40;66.10;;;;;;5092815;28;20135;-65
2021/04/09 06:25:32;;;;;;;11.48;4.00;;;8.40;66.10;;;;;;5092486;28;20123;-65
2021/04/09 06:27:58;;;;;;;17.02;5.50;;;8.40;66.10;;;;;;5092811;28;20496;-65
2021/04/09 06:30:24;;;;;;;14.15;5.10;;;8.40;66.10;;;;;;5092892;28;20530;-66
2021/04/09 06:32:49;;;;;;;15.15;4.57;;;8.30;66.00;;;;;;5092580;28;20044;-65
2021/04/09 06:35:16;;;;;;;13.65;4.35;;;8.30;66.10;;;;;;5081682;28;20028;-63
2021/04/09 06:37:41;;;;;;;18.55;6.22;;;8.40;66.30;;;;;;5092531;28;20075;-65
2021/04/09 06:40:10;;;;;;;13.40;5.47;;;8.50;66.30;;;;;;5103386;28;20024;-66
2021/04/09 06:42:36;;;;;;;15.50;5.85;;;8.60;66.30;;;;;;5093437;28;20077;-66
2021/04/09 06:45:04;;;;;;;14.50;5.35;;;8.70;66.20;;;;;;5094602;28;20069;-66
2021/04/09 06:47:32;;;;;;;15.77;4.80;;;8.90;66.10;;;;;;5093581;28;20065;-66
2021/04/09 06:49:58;;;;;;;15.93;4.70;;;9.00;66.00;;;;;;5092834;28;20032;-65
2021/04/09 06:52:27;;;;;;;11.20;4.70;;;9.00;65.80;;;;;;5090249;28;20155;-65
2021/04/09 06:54:53;;;;;;;15.75;5.43;;;9.20;65.70;;;;;;5091752;28;20366;-65
2021/04/09 06:57:19;;;;;;;14.98;5.35;;;9.20;65.50;;;;;;5080567;28;20035;-65
2021/04/09 06:59:46;;;;;;;15.27;4.80;;;9.30;65.50;;;;;;5084666;28;20032;-65
2021/04/09 07:02:15;;;;;;;13.93;4.90;;;9.40;65.40;;;;;;5082568;28;20036;-66
2021/04/09 07:04:42;;;;;;;13.65;4.22;;;9.40;65.20;;;;;;5088094;28;20028;-65
2021/04/09 07:07:12;;;;;;;14.13;5.63;;;9.50;65.20;;;;;;5086283;28;20028;-65
2021/04/09 07:09:39;;;;;;;13.30;5.10;;;9.60;65.20;;;;;;5084991;28;20055;-66
2021/04/09 07:12:06;;;;;;;13.43;4.68;;;9.60;64.90;;;;;;5086636;28;20028;-66
2021/04/09 07:14:55;;;;;;;13.38;4.55;;;9.50;64.50;;;;;;5082800;28;20149;-67
2021/04/09 07:17:32;;;;;;;14.48;5.88;;;9.40;64.50;;;;;;5090953;28;20024;-66
2021/04/09 07:20:16;;;;;;;10.77;5.00;;;9.30;64.60;;;;;;5088242;28;20024;-66
2021/04/09 07:22:53;;;;;;;14.10;4.97;;;9.20;64.80;;;;;;5070549;28;20123;-66
2021/04/09 07:25:30;;;;;;;19.77;4.93;;;9.10;64.90;;;;;;5094767;28;20036;-67
2021/04/09 07:28:17;;;;;;;17.85;5.78;;;9.10;65.20;;;;;;5096478;28;20020;-66
2021/04/09 07:30:51;;;;;;;15.13;5.40;;;9.10;65.40;;;;;;5099350;28;20028;-66
2021/04/09 07:33:19;;;;;;;17.45;5.70;;;9.20;65.40;;;;;;5081180;28;20107;-66
2021/04/09 07:35:46;;;;;;;12.80;5.80;;;9.40;65.50;;;;;;5099571;28;20016;-65
2021/04/09 07:38:20;;;;;;;10.40;5.15;;;9.50;65.50;;;;;;5096452;28;20031;-66
2021/04/09 07:40:55;;;;;;;11.25;4.63;;;9.60;65.20;;;;;;5077774;28;20032;-66
2021/04/09 07:43:21;;;;;;;14.57;5.05;;;9.60;65.20;;;;;;5096692;28;20032;-66
2021/04/09 07:45:47;;;;;;;10.95;4.43;;;9.80;65.20;;;;;;5082932;28;20112;-65
2021/04/09 07:48:17;;;;;;;19.42;4.10;;;9.90;64.90;;;;;;5085635;28;20024;-66
2021/04/09 07:50:50;;;;;;;9.18;4.18;;;10.00;64.70;;;;;;5087453;28;20455;-66
2021/04/09 07:53:18;;;;;;;12.55;4.85;;;10.20;64.60;;;;;;5095533;28;20032;-66
2021/04/09 07:55:44;;;;;;;7.65;4.22;;;10.30;64.40;;;;;;5088257;28;20496;-65
2021/04/09 07:58:18;;;;;;;17.88;5.32;;;10.40;73.00;;;;;;5088538;28;20028;-67
2021/04/09 08:00:45;;;;;;;13.85;4.13;;;10.50;64.30;;;;;;5083362;28;20024;-67
2021/04/09 08:03:28;;;;;;;11.63;5.25;;;10.60;64.20;;;;;;5092052;28;20019;-66
2021/04/09 08:06:07;;;;;;;10.23;4.25;;;10.80;64.00;;;;;;5092493;28;20036;-66
2021/04/09 08:08:33;;;;;;;11.68;4.75;;;10.90;63.70;;;;;;5068810;28;20451;-67
2021/04/09 08:11:33;;;;;;;18.02;5.47;;;10.90;63.30;;;;;;5089774;28;20498;-66
2021/04/09 08:14:06;;;;;;;8.07;4.03;;;10.80;63.10;;;;;;5050158;28;20044;-66
2021/04/09 08:16:38;;;;;;;16.00;4.57;;;10.90;63.10;;;;;;5090608;28;20537;-64
2021/04/09 08:19:12;;;;;;;11.70;3.83;;;10.90;63.20;;;;;;5088965;28;20027;-66
2021/04/09 08:21:44;;;;;;;15.02;5.05;;;11.00;62.90;;;;;;5094645;28;20043;-66
2021/04/09 08:24:11;;;;;;;9.95;4.47;;;10.90;62.60;;;;;;5088786;28;20126;-67
2021/04/09 08:26:38;;;;;;;10.45;5.03;;;10.80;62.60;;;;;;5084880;28;20020;-67
2021/04/09 08:29:07;;;;;;;8.20;3.80;;;10.80;62.80;;;;;;5087040;28;20024;-66
2021/04/09 08:31:33;;;;;;;14.73;4.78;;;11.00;63.10;;;;;;5086370;28;20093;-68
2021/04/09 08:34:00;;;;;;;11.40;3.97;;;11.10;62.90;;;;;;5083076;28;20123;-67
2021/04/09 08:36:27;;;;;;;10.77;3.42;;;11.00;62.40;;;;;;5086036;28;20024;-68
2021/04/09 08:38:54;;;;;;;12.35;3.53;;;11.00;62.20;;;;;;5091162;28;20048;-68
2021/04/09 08:41:21;;;;;;;13.63;5.07;;;10.90;62.00;;;;;;5089381;28;20505;-67
2021/04/09 08:43:47;;;;;;;12.32;4.15;;;10.80;62.00;;;;;;5086770;28;20030;-66
2021/04/09 08:46:13;;;;;;;9.52;3.70;;;10.80;62.00;;;;;;5090205;28;20085;-66
2021/04/09 08:48:40;;;;;;;9.30;4.25;;;10.80;62.00;;;;;;5082685;28;20032;-66
2021/04/09 08:51:09;;;;;;;9.50;4.10;;;10.70;62.00;;;;;;5087534;28;20028;-65
2021/04/09 08:53:35;;;;;;;10.75;3.83;;;10.70;61.90;;;;;;5086030;28;20463;-66
2021/04/09 08:56:03;;;;;;;12.50;4.45;;;10.70;61.70;;;;;;5080647;28;20123;-66
2021/04/09 08:58:32;;;;;;;8.73;3.80;;;10.70;61.80;;;;;;5081709;28;20989;-67
2021/04/09 09:01:11;;;;;;;12.65;5.20;;;10.80;62.00;;;;;;5083211;28;20031;-65
2021/04/09 09:03:37;;;;;;;8.02;4.78;;;11.00;61.70;;;;;;5086836;28;20028;-67
2021/04/09 09:06:08;;;;;;;7.57;3.67;;;11.30;61.60;;;;;;5082113;28;20063;-65
2021/04/09 09:08:46;;;;;;;19.90;3.75;;;;;;;;;;5076123;28;20024;-65
2021/04/09 09:11:33;;;;;;;9.02;3.33;;;11.90;60.20;;;;;;5090701;28;20389;-67
2021/04/09 09:13:59;;;;;;;8.13;3.88;;;12.10;60.40;;;;;;5095114;28;20081;-66
2021/04/09 09:16:36;;;;;;;12.50;3.65;;;12.30;59.70;;;;;;5095579;28;20425;-67
2021/04/09 09:19:03;;;;;;;11.18;3.75;;;12.40;59.20;;;;;;5096905;28;20024;-65
2021/04/09 09:21:34;;;;;;;9.98;3.40;;;12.40;59.10;;;;;;5092289;28;20063;-66
2021/04/09 09:24:17;;;;;;;10.25;3.40;;;12.30;58.70;;;;;;5091568;28;20104;-67
2021/04/09 09:26:48;;;;;;;7.55;3.88;;;12.30;58.60;;;;;;5092605;28;20036;-67
2021/04/09 09:29:28;;;;;;;11.95;3.20;;;12.20;58.30;;;;;;5090704;28;20114;-66
2021/04/09 09:32:02;;;;;;;9.63;3.65;;;12.00;58.00;;;;;;5092447;28;20080;-66
2021/04/09 09:34:30;;;;;;;14.40;4.17;;;11.90;58.10;;;;;;5091901;28;20432;-66
2021/04/09 09:37:09;;;;;;;12.90;3.15;;;11.70;58.20;;;;;;5092280;28;20059;-66
2021/04/09 09:39:42;;;;;;;7.53;3.55;;;11.60;58.30;;;;;;5101671;28;20482;-65
2021/04/09 09:42:12;;;;;;;11.88;3.47;;;11.50;58.30;;;;;;5087910;28;20047;-66
2021/04/09 09:44:42;;;;;;;14.13;4.45;;;11.40;58.40;;;;;;5095325;28;20035;-64
2021/04/09 09:47:14;;;;;;;9.75;3.78;;;11.40;58.40;;;;;;5079743;28;20561;-65
2021/04/09 09:50:00;;;;;;;9.48;4.00;;;11.30;58.30;;;;;;5089438;28;20024;-65
2021/04/09 09:53:00;;;;;;;14.02;4.47;;;11.20;58.30;;;;;;5093026;28;20031;-65
2021/04/09 09:55:30;;;;;;;8.88;3.83;;;11.20;58.40;;;;;;5094612;28;20059;-65
2021/04/09 09:57:59;;;;;;;9.75;3.40;;;11.10;58.60;;;;;;5096410;28;20016;-65
2021/04/09 10:00:39;;;;;;;12.15;3.58;;;11.20;58.60;;;;;;5097187;28;20032;-65
2021/04/09 10:03:12;;;;;;;17.98;4.18;;;11.10;58.60;;;;;;5095161;28;20028;-65
2021/04/09 10:05:40;;;;;;;10.60;4.18;;;11.20;58.60;;;;;;5097315;28;20031;-64
2021/04/09 10:08:06;;;;;;;8.93;3.92;;;11.20;58.40;;;;;;5093517;28;20020;-65
2021/04/09 10:10:44;;;;;;;15.60;4.45;;;11.30;58.30;;;;;;5099814;28;20031;-65
2021/04/09 10:13:18;;;;;;;8.60;3.15;;;11.30;58.30;;;;;;5095290;28;20111;-66
2021/04/09 10:15:45;;;;;;;11.63;3.50;;;11.30;58.20;;;;;;5089498;28;20020;-65
2021/04/09 10:18:11;;;;;;;8.85;3.42;;;11.40;58.20;;;;;;5091860;28;20478;-66
2021/04/09 10:20:37;;;;;;;11.07;3.30;;;11.50;58.20;;;;;;5096771;28;20028;-66
2021/04/09 10:23:04;;;;;;;12.02;4.47;;;11.80;57.90;;;;;;5099687;28;20032;-66
2021/04/09 10:25:34;;;;;;;8.68;3.20;;;12.20;57.70;;;;;;5091270;28;20048;-65
2021/04/09 10:28:10;;;;;;;12.30;4.07;;;12.50;57.20;;;;;;5087681;28;20032;-66
2021/04/09 10:30:36;;;;;;;13.15;3.50;;;12.80;56.90;;;;;;5080434;28;20020;-65
2021/04/09 10:33:02;;;;;;;8.25;3.00;;;13.20;56.50;;;;;;5082235;28;20027;-65
2021/04/09 10:35:28;;;;;;;10.05;4.13;;;13.50;55.90;;;;;;5086810;28;20031;-66
2021/04/09 10:38:28;;;;;;;10.18;3.22;;;13.70;55.30;;;;;;5084902;28;20106;-66
2021/04/09 10:40:58;;;;;;;6.43;2.88;;;13.90;54.30;;;;;;5036245;28;20081;-66
2021/04/09 10:43:29;;;;;;;9.27;2.85;;;13.90;53.90;;;;;;5081613;28;20047;-66
2021/04/09 10:46:11;;;;;;;8.27;2.85;;;13.70;53.10;;;;;;5077305;28;20083;-65
2021/04/09 10:48:39;;;;;;;6.13;3.03;;;13.50;52.60;;;;;;5079453;28;20031;-65
2021/04/09 10:51:05;;;;;;;10.40;3.00;;;13.20;52.80;;;;;;5085060;28;20020;-66
2021/04/09 10:53:31;;;;;;;8.70;4.45;;;13.00;52.60;;;;;;5094393;28;20032;-65
2021/04/09 10:56:05;;;;;;;7.35;3.53;;;13.00;56.30;;;;;;5082703;28;20039;-65
2021/04/09 10:58:31;;;;;;;6.07;2.35;;;13.10;57.10;;;;;;5089503;28;20028;-65
2021/04/09 11:00:57;;;;;;;5.68;2.60;;;;;;;;;;5075361;28;20027;-66
2021/04/09 11:03:24;;;;;;;6.60;2.70;;;13.30;52.10;;;;;;5073824;28;20028;-67
2021/04/09 11:05:49;;;;;;;9.93;2.95;;;13.50;52.20;;;;;;5093254;28;20028;-67
2021/04/09 11:08:34;;;;;;;4.18;2.60;;;13.70;52.00;;;;;;5089206;28;20031;-67
2021/04/09 11:11:06;;;;;;;5.30;2.47;;;13.80;51.10;;;;;;5082101;28;20042;-66
2021/04/09 11:13:34;;;;;;;7.05;2.45;;;14.00;51.20;;;;;;5093898;28;20077;-67
2021/04/09 11:16:00;;;;;;;6.05;2.20;;;14.00;50.60;;;;;;5107240;28;20441;-67
2021/04/09 11:18:52;;;;;;;7.78;2.42;;;14.10;50.60;;;;;;5093233;28;20032;-67
2021/04/09 11:21:45;;;;;;;5.78;2.00;;;14.20;49.40;;;;;;5091525;28;20990;-67
2021/04/09 11:24:12;;;;;;;3.72;2.20;;;14.40;49.00;;;;;;5080716;28;20094;-66
2021/04/09 11:26:38;;;;;;;2.67;1.92;;;14.30;49.40;;;;;;5090433;28;20028;-66
2021/04/09 11:29:04;;;;;;;5.20;2.28;;;14.40;49.30;;;;;;5094094;28;20107;-66
2021/04/09 11:31:31;;;;;;;5.85;2.60;;;14.40;49.30;;;;;;5094827;28;20047;-67
2021/04/09 11:34:09;;;;;;;5.60;2.38;;;14.40;48.90;;;;;;5090711;28;20024;-67
2021/04/09 11:36:41;;;;;;;6.80;2.45;;;14.30;48.60;;;;;;5091338;28;20076;-66
2021/04/09 11:39:08;;;;;;;8.68;2.85;;;14.10;48.50;;;;;;5085302;28;20082;-67
2021/04/09 11:41:35;;;;;;;5.50;2.80;;;13.90;48.70;;;;;;5088694;28;20486;-66
2021/04/09 11:44:25;;;;;;;7.68;2.60;;;13.60;49.00;;;;;;5090719;28;20039;-67
2021/04/09 11:47:12;;;;;;;6.03;3.30;;;13.30;49.20;;;;;;5092877;28;20042;-66
2021/04/09 11:49:39;;;;;;;7.45;2.85;;;13.10;49.50;;;;;;5083531;28;20426;-66
2021/04/09 11:52:06;;;;;;;4.55;3.30;;;12.80;50.00;;;;;;5085875;28;20269;-66
2021/04/09 11:54:35;;;;;;;8.80;2.60;;;12.60;50.30;;;;;;5088877;28;20048;-65
2021/04/09 11:57:01;;;;;;;3.95;2.25;;;12.50;50.40;;;;;;5092295;28;20027;-65
2021/04/09 11:59:31;;;;;;;3.97;2.20;;;12.50;50.50;;;;;;5080717;28;20521;-65
2021/04/09 12:02:14;;;;;;;4.32;2.17;;;12.40;50.40;;;;;;5090114;28;20038;-65
2021/04/09 12:04:40;;;;;;;3.33;2.10;;;12.40;50.40;;;;;;5083981;28;20046;-65
2021/04/09 12:07:26;;;;;;;4.05;1.92;;;12.50;50.70;;;;;;5094158;28;20020;-65
2021/04/09 12:09:56;;;;;;;4.47;2.10;;;12.50;50.40;;;;;;5088359;28;20050;-65
2021/04/09 12:12:24;;;;;;;3.45;1.80;;;12.60;50.50;;;;;;5094476;28;20123;-66
2021/04/09 12:14:56;;;;;;;2.58;1.80;;;12.70;50.50;;;;;;5094093;28;20028;-66
2021/04/09 12:17:23;;;;;;;4.40;2.00;;;12.90;50.40;;;;;;5095389;28;20099;-65
2021/04/09 12:19:50;;;;;;;3.90;1.90;;;13.10;50.00;;;;;;5093483;28;20028;-67
2021/04/09 12:22:17;;;;;;;4.60;1.90;;;13.30;49.60;;;;;;5098388;28;20031;-66
2021/04/09 12:24:47;;;;;;;7.20;2.25;;;13.50;49.00;;;;;;5095565;28;20463;-66
2021/04/09 12:27:15;;;;;;;4.90;2.30;;;13.60;48.90;;;;;;5097934;28;20039;-67
2021/04/09 12:29:40;;;;;;;3.28;2.15;;;13.90;49.10;;;;;;5095042;28;20021;-66
2021/04/09 12:32:07;;;;;;;3.78;2.22;;;14.20;49.00;;;;;;5094446;28;20099;-65
2021/04/09 12:34:34;;;;;;;2.40;2.03;;;14.50;48.30;;;;;;5095188;28;20024;-65
2021/04/09 12:37:00;;;;;;;5.93;2.30;;;14.70;47.70;;;;;;5094412;28;20028;-66
2021/04/09 12:39:27;;;;;;;5.43;2.60;;;14.80;47.40;;;;;;5099650;28;20028;-65
2021/04/09 12:41:53;;;;;;;5.43;2.30;;;14.90;47.20;;;;;;5098288;28;20085;-65
2021/04/09 12:44:20;;;;;;;6.57;2.63;;;15.00;47.10;;;;;;5099396;28;20062;-65
2021/04/09 12:46:48;;;;;;;6.20;2.30;;;15.10;47.20;;;;;;5102980;28;20032;-64
2021/04/09 12:49:15;;;;;;;4.00;2.33;;;15.30;47.40;;;;;;5099726;28;20020;-66
2021/04/09 12:51:41;;;;;;;4.05;2.10;;;15.40;47.00;;;;;;5105743;28;20030;-66
2021/04/09 12:54:07;;;;;;;3.45;2.10;;;15.30;46.30;;;;;;5098483;28;20107;-65
2021/04/09 12:56:33;;;;;;;3.35;2.65;;;15.10;46.30;;;;;;5100906;28;20097;-67
2021/04/09 12:58:59;;;;;;;3.80;2.50;;;;;;;;;;5099703;28;20035;-65